createdAt,value
2023-02-14T00:01:51.441Z,14.43
2023-02-14T00:06:54.688Z,13.90
2023-02-14T00:12:00.903Z,13.70
2023-02-14T00:17:05.610Z,14.67
2023-02-14T00:22:08.853Z,13.43
2023-02-14T00:27:12.695Z,13.67
2023-02-14T00:32:17.354Z,13.60
2023-02-14T00:37:24.057Z,13.87
2023-02-14T00:42:29.414Z,12.43
2023-02-14T00:47:34.305Z,19.00
2023-02-14T00:52:37.610Z,17.20
2023-02-14T00:57:40.730Z,13.47
2023-02-14T01:02:45.635Z,12.57
2023-02-14T01:07:52.463Z,11.93
2023-02-14T01:12:55.961Z,13.70
2023-02-14T01:18:01.154Z,13.37
2023-02-14T01:23:04.796Z,11.00
2023-02-14T01:28:08.167Z,11.37
2023-02-14T01:33:12.721Z,11.20
2023-02-14T01:38:15.989Z,12.77
2023-02-14T01:43:19.395Z,13.83
2023-02-14T01:48:24.319Z,11.70
2023-02-14T01:53:29.438Z,12.50
2023-02-14T01:58:36.593Z,12.73
2023-02-14T02:03:45.063Z,11.57
2023-02-14T02:08:51.994Z,11.83
2023-02-14T02:13:55.339Z,12.37
2023-02-14T02:19:08.058Z,11.30
2023-02-14T02:24:17.190Z,12.30
2023-02-14T02:29:47.516Z,10.67
2023-02-14T02:35:13.400Z,11.47
2023-02-14T02:40:22.154Z,10.87
2023-02-14T02:45:29.170Z,11.17
2023-02-14T02:50:52.576Z,10.67
2023-02-14T02:56:17.991Z,10.83
2023-02-14T03:01:23.132Z,9.53
2023-02-14T03:06:27.983Z,11.60
2023-02-14T03:11:31.754Z,11.57
2023-02-14T03:16:36.715Z,11.37
2023-02-14T03:21:44.870Z,10.93
2023-02-14T03:26:50.020Z,10.37
2023-02-14T03:31:58.128Z,10.47
2023-02-14T03:37:06.284Z,9.53
2023-02-14T03:42:12.781Z,10.30
2023-02-14T03:47:18.433Z,9.40
2023-02-14T03:52:25.173Z,10.87
2023-02-14T03:57:30.455Z,10.57
2023-02-14T04:02:37.022Z,10.23
2023-02-14T04:07:47.459Z,10.07
2023-02-14T04:12:50.680Z,10.17
2023-02-14T04:18:11.540Z,8.63
2023-02-14T04:23:16.182Z,9.33
2023-02-14T04:28:20.168Z,8.90
2023-02-14T04:33:23.572Z,10.10
2023-02-14T04:38:28.205Z,10.27
2023-02-14T04:43:31.566Z,8.67
2023-02-14T04:48:34.902Z,10.10
2023-02-14T04:53:41.800Z,10.67
2023-02-14T04:58:45.014Z,10.27
2023-02-14T05:03:48.350Z,8.63
2023-02-14T05:08:52.962Z,17.30
2023-02-14T05:13:56.538Z,18.63
2023-02-14T05:18:59.939Z,10.03
2023-02-14T05:24:04.960Z,8.93
2023-02-14T05:29:08.622Z,8.83
2023-02-14T05:34:11.766Z,8.67
2023-02-14T05:39:16.515Z,9.53
2023-02-14T05:44:19.987Z,11.00
2023-02-14T05:49:25.968Z,10.87
2023-02-14T05:54:30.882Z,9.80
2023-02-14T05:59:34.693Z,9.90
2023-02-14T06:04:38.064Z,9.63
2023-02-14T06:09:42.973Z,9.90
2023-02-14T06:14:46.246Z,10.57
2023-02-14T06:19:49.585Z,9.10
2023-02-14T06:24:54.304Z,10.40
2023-02-14T06:29:57.803Z,10.47
2023-02-14T06:35:02.640Z,8.67
2023-02-14T06:40:08.409Z,13.13
2023-02-14T06:45:11.883Z,10.00
2023-02-14T06:50:15.196Z,9.37
2023-02-14T06:55:20.222Z,8.60
2023-02-14T07:00:23.864Z,9.10
2023-02-14T07:05:27.231Z,9.37
2023-02-14T07:10:33.137Z,8.73
2023-02-14T07:15:36.751Z,9.20
2023-02-14T07:20:40.208Z,15.97
2023-02-14T07:25:45.246Z,11.73
2023-02-14T07:30:48.938Z,14.17
2023-02-14T07:35:52.330Z,10.97
2023-02-14T07:40:57.200Z,11.53
2023-02-14T07:46:01.241Z,12.40
2023-02-14T07:51:05.531Z,10.17
2023-02-14T07:56:10.694Z,10.00
2023-02-14T08:01:14.125Z,10.10
2023-02-14T08:06:17.619Z,9.73
2023-02-14T08:11:45.724Z,10.40
2023-02-14T08:16:49.637Z,12.33
2023-02-14T08:21:52.821Z,9.80
2023-02-14T08:26:57.624Z,10.33
2023-02-14T08:32:01.194Z,8.60
2023-02-14T08:37:04.545Z,8.67
2023-02-14T08:42:09.448Z,8.07
2023-02-14T08:47:12.802Z,9.20
2023-02-14T08:52:16.202Z,7.90
2023-02-14T08:57:21.075Z,8.50
2023-02-14T09:02:24.761Z,8.23
2023-02-14T09:07:28.194Z,8.10
2023-02-14T09:12:33.245Z,8.33
2023-02-14T09:17:36.785Z,9.77
2023-02-14T09:22:40.202Z,7.60
2023-02-14T09:27:45.622Z,10.93
2023-02-14T09:32:52.437Z,8.47
2023-02-14T09:38:13.843Z,8.70
2023-02-14T09:43:25.055Z,9.57
2023-02-14T09:48:33.313Z,7.33
2023-02-14T09:53:37.983Z,6.87
2023-02-14T09:58:45.543Z,7.17
2023-02-14T10:04:03.753Z,6.80
2023-02-14T10:09:11.606Z,6.53
2023-02-14T10:14:18.551Z,6.07
2023-02-14T10:19:25.997Z,6.70
2023-02-14T10:24:33.035Z,6.30
2023-02-14T10:29:40.911Z,5.63
2023-02-14T10:34:48.109Z,6.70
2023-02-14T10:39:59.271Z,6.00
2023-02-14T10:45:12.963Z,7.07
2023-02-14T10:50:20.819Z,7.00
2023-02-14T10:55:32.258Z,7.00
2023-02-14T11:00:39.580Z,7.37
2023-02-14T11:05:46.568Z,7.10
2023-02-14T11:10:50.436Z,7.93
2023-02-14T11:15:55.481Z,7.30
2023-02-14T11:21:00.854Z,6.83
2023-02-14T11:26:04.870Z,8.27
2023-02-14T11:31:10.441Z,7.00
2023-02-14T11:36:16.837Z,10.73
2023-02-14T11:41:24.471Z,15.07
2023-02-14T11:46:36.158Z,12.67
2023-02-14T11:51:45.430Z,8.40
2023-02-14T11:56:51.138Z,8.00
2023-02-14T12:01:57.873Z,9.17
2023-02-14T12:07:18.845Z,8.87
2023-02-14T12:12:23.868Z,8.43
2023-02-14T12:17:30.684Z,8.33
2023-02-14T12:22:36.827Z,8.00
2023-02-14T12:27:47.342Z,8.70
2023-02-14T12:32:53.193Z,8.93
2023-02-14T12:38:04.872Z,9.57
2023-02-14T12:43:17.563Z,8.83
2023-02-14T12:48:26.571Z,9.27
2023-02-14T12:53:44.856Z,8.13
2023-02-14T12:58:54.552Z,8.73
2023-02-14T13:04:20.904Z,8.10
2023-02-14T13:09:30.783Z,8.17
2023-02-14T13:14:42.489Z,8.93
2023-02-14T13:19:48.785Z,8.77
2023-02-14T13:25:00.391Z,8.47
2023-02-14T13:30:06.422Z,8.13
2023-02-14T13:35:16.713Z,9.53
2023-02-14T13:40:23.411Z,13.40
2023-02-14T13:45:45.342Z,10.87
2023-02-14T13:50:53.883Z,9.83
2023-02-14T13:55:58.747Z,9.77
2023-02-14T14:01:22.242Z,9.60
2023-02-14T14:06:27.135Z,8.77
2023-02-14T14:11:59.774Z,8.90
2023-02-14T14:17:04.900Z,12.20
2023-02-14T14:22:12.024Z,10.27
2023-02-14T14:27:17.543Z,10.97
2023-02-14T14:32:23.911Z,8.67
2023-02-14T14:37:30.228Z,9.43
2023-02-14T14:42:37.552Z,9.47
2023-02-14T14:47:43.677Z,9.03
2023-02-14T14:52:49.905Z,9.30
2023-02-14T14:57:53.841Z,10.43
2023-02-14T15:02:58.624Z,9.30
2023-02-14T15:08:15.968Z,9.97
2023-02-14T15:13:38.022Z,9.83
2023-02-14T15:18:42.730Z,10.57
2023-02-14T15:23:48.876Z,10.60
2023-02-14T15:28:56.009Z,10.03
2023-02-14T15:34:03.813Z,11.57
2023-02-14T15:39:11.754Z,12.00
2023-02-14T15:44:22.061Z,12.17
2023-02-14T15:49:28.462Z,27.27
2023-02-14T15:54:36.641Z,24.43
2023-02-14T15:59:42.783Z,24.73
2023-02-14T16:04:46.091Z,14.57
2023-02-14T16:09:51.240Z,12.70
2023-02-14T16:15:01.925Z,14.03
2023-02-14T16:20:23.577Z,11.77
2023-02-14T16:25:30.149Z,12.87
2023-02-14T16:30:34.559Z,10.90
2023-02-14T16:35:37.840Z,12.10
2023-02-14T16:40:43.627Z,11.13
2023-02-14T16:45:47.860Z,11.83
2023-02-14T16:50:52.647Z,10.57
2023-02-14T16:55:59.043Z,14.53
2023-02-14T17:01:02.742Z,26.30
2023-02-14T17:06:06.415Z,19.17
2023-02-14T17:11:11.805Z,10.30
2023-02-14T17:16:18.963Z,8.90
2023-02-14T17:21:24.762Z,8.37
2023-02-14T17:26:29.362Z,10.13
2023-02-14T17:31:32.826Z,10.10
2023-02-14T17:36:36.835Z,11.80
2023-02-14T17:41:41.533Z,9.97
2023-02-14T17:46:45.036Z,11.77
2023-02-14T17:51:48.387Z,12.30
2023-02-14T17:56:53.484Z,11.77
2023-02-14T18:01:57.029Z,10.30
2023-02-14T18:07:00.709Z,12.13
2023-02-14T18:12:05.803Z,11.80
2023-02-14T18:17:13.154Z,11.80
2023-02-14T18:22:17.176Z,9.00
2023-02-14T18:27:23.282Z,8.50
2023-02-14T18:32:26.959Z,9.27
2023-02-14T18:37:31.523Z,8.87
2023-02-14T18:42:37.289Z,9.17
2023-02-14T18:47:40.756Z,9.77
2023-02-14T18:52:44.541Z,7.80
2023-02-14T18:57:49.477Z,8.87
2023-02-14T19:02:52.730Z,9.43
2023-02-14T19:07:56.742Z,10.20
2023-02-14T19:13:01.478Z,10.10
2023-02-14T19:18:04.941Z,10.10
2023-02-14T19:23:08.398Z,9.07
2023-02-14T19:28:13.626Z,9.13
2023-02-14T19:33:16.951Z,9.30
2023-02-14T19:38:27.626Z,9.60
2023-02-14T19:43:32.263Z,9.30
2023-02-14T19:48:35.520Z,9.40
2023-02-14T19:53:38.859Z,9.20
2023-02-14T19:58:43.479Z,8.43
2023-02-14T20:03:46.797Z,8.73
2023-02-14T20:08:50.782Z,10.40
2023-02-14T20:13:56.153Z,8.90
2023-02-14T20:18:59.634Z,8.27
2023-02-14T20:24:06.345Z,8.53
2023-02-14T20:29:15.265Z,10.90
2023-02-14T20:34:22.081Z,9.43
2023-02-14T20:39:29.255Z,8.73
2023-02-14T20:44:46.726Z,9.30
2023-02-14T20:49:50.877Z,12.07
2023-02-14T20:54:54.084Z,15.13
2023-02-14T20:59:59.493Z,10.20
2023-02-14T21:05:02.835Z,24.80
2023-02-14T21:10:07.562Z,23.10
2023-02-14T21:15:12.608Z,12.60
2023-02-14T21:20:16.481Z,11.27
2023-02-14T21:25:22.169Z,11.77
2023-02-14T21:30:31.026Z,12.63
2023-02-14T21:35:37.103Z,11.47
2023-02-14T21:40:40.496Z,12.90
2023-02-14T21:45:55.317Z,12.37
2023-02-14T21:50:59.157Z,12.73
2023-02-14T21:56:06.379Z,19.33
2023-02-14T22:01:19.624Z,16.80
2023-02-14T22:06:23.157Z,13.33
2023-02-14T22:11:30.081Z,16.43
2023-02-14T22:16:36.994Z,14.80
2023-02-14T22:21:42.868Z,14.90
2023-02-14T22:26:46.334Z,14.83
2023-02-14T22:31:53.302Z,12.70
2023-02-14T22:36:56.631Z,10.03
2023-02-14T22:41:59.826Z,12.63
2023-02-14T22:47:05.821Z,12.63
2023-02-14T22:52:09.761Z,10.97
2023-02-14T22:57:13.083Z,11.80
2023-02-14T23:02:17.822Z,11.77
2023-02-14T23:07:22.519Z,10.27
2023-02-14T23:12:43.268Z,11.23
2023-02-14T23:18:05.438Z,12.13
2023-02-14T23:23:08.718Z,10.07
2023-02-14T23:28:12.010Z,10.53
2023-02-14T23:33:18.867Z,11.23
2023-02-14T23:38:22.158Z,12.33
2023-02-14T23:43:25.694Z,15.67
2023-02-14T23:48:30.453Z,14.47
2023-02-14T23:53:33.746Z,13.67
2023-02-14T23:58:43.286Z,13.80
